Rancho Santa Fe, CA (92067)

4:57 PM PDT on April 25, 2015 (GMT -0700)
Rancho Santa Fe @ The Farms | | Change Station
CLOSE
Current Station
Personal Weather Station
Location: Rancho Santa Fe, CA
Elevation: 308 ft
Nearby Weather Stations

Elev 308 ft 32.98 °N, 117.18 °W | Updated 2 seconds ago

Overcast
Overcast
60.2 °F
Feels Like 60.2 °F
N
4.0
Wind Variable Wind from West
Gusts 10.0 mph

Today
High -- | Low -- °F
--% Chance of Precip.
Yesterday
High -- | Low -- °F
Precip. -- in
6:07 AM 7:26 PM
Waxing Crescent, 50% visible
Pressure 29.92 in
Visibility 6.0 miles
Clouds Few 1000 ft
Overcast 1600 ft
Dew Point 55 °F
Humidity 83%
Rainfall 0.00 in
Snow Depth Not available.
UV 0.0 out of 12
Pollen 8.30 out of 12
Air Quality Not available.
Flu Activity Sporadic
METAR KCRQ 252353Z 26007KT 6SM -RA BR FEW010 OVC016 16/13 A2992 RMK AO2 SLP130 P0003 60003 T01560133 10172 20144 56014

More Conditions Fewer Conditions

Pressure 29.92 in
Visibility 6.0 miles
Clouds Few 1000 ft
Overcast 1600 ft
Dew Point 55 °F
Humidity 83%
Rainfall 0.00 in
Snow Depth Not available.
UV 0.0 out of 12
Pollen 8.30 out of 12
Air Quality Not available.
Flu Activity Sporadic
METAR KCRQ 252353Z 26007KT 6SM -RA BR FEW010 OVC016 16/13 A2992 RMK AO2 SLP130 P0003 60003 T01560133 10172 20144 56014

More Conditions Fewer Conditions

10-Day Weather Forecast

Almanac

Astronomy

Apr. 25, 2015 Rise Set
Actual Time
Civil Twilight
Nautical Twilight
Astronomical Twilight
Moon
Length of Visible Light
Length of Day
Tomorrow will be .
, % of the Moon is Illuminated

Today's Extremes

State Highs State Lows

Community

WunderPhotos

Upload Photos

1,816,850 photos uploaded!

WunderBlogs® & News

Nearby

Air Quality

  Air Quality AQ Index Pollutant
Not available.

Snow Depth

Station Depth Elevation

Earthquake Activity

City Distance Mag. Time & Date
Minimum magnitude displayed is 2.5.

Coastal Water Temperatures

Place Temperature

Stations

Nearby Weather Stations

Station Location Temp. Windchill Dew Point Humidity Wind Precip. Elev Updated Type